首页
METAR-TAF:

METAR-TAF

机场 :

弗罗茨瓦夫, 波兰

纬度: 51-06N, 经度: 016-53E, 海拔: 120米

当前天气观测

该预报发布于25分钟前的01:30 UTC
风速7节,风向西
温度 2°C
湿度 93%
气压 1017 hPa
能见度10公里或以上
1500米以下无云,无积雨云

METAR: EPWR 080130Z 26007KT CAVOK 02/01 Q1017

时间: 03:55 (01:55 UTC)

预报

该预报发布于2小时和25分钟前的23:30 UTC
预报有效从08日的 00点(UTC)到 08日的 24点(UTC)
风速12节,风向西
能见度10公里或以上
1500米以下无云,无积雨云
短暂存在
从 08日的 07点(UTC)到 08日的 16点(UTC)
风速15节,风向西,有时为25节阵风

TAF: EPWR 072330Z 0800/0824 28012KT CAVOK TEMPO 0807/0816 27015G25KT

超过4000个机场的气象观测和天气预报(METAR&TAF报告)。

可查询的气象台以黄色和红色小点在地图上表示。

将鼠标移到小点上方,可查看气象台名称。

然后点击查看天气观测和预报。

如需切换地图:点击带黑十字的绿色按钮放大地图;点击带横线的绿色按钮缩小地图;或者点击绿色箭头查看邻近地区的地图。


METAR-TAF: